createdAt,value
2018-12-03T00:00:50.679Z,6.90
2018-12-03T00:03:19.979Z,6.63
2018-12-03T00:05:48.872Z,6.25
2018-12-03T00:08:17.761Z,5.47
2018-12-03T00:10:46.755Z,5.73
2018-12-03T00:13:15.665Z,6.10
2018-12-03T00:15:44.514Z,5.57
2018-12-03T00:18:13.431Z,5.03
2018-12-03T00:20:42.984Z,6.05
2018-12-03T00:23:12.991Z,6.58
2018-12-03T00:25:42.888Z,6.63
2018-12-03T00:28:11.701Z,6.83
2018-12-03T00:30:40.750Z,7.33
2018-12-03T00:33:09.642Z,7.77
2018-12-03T00:35:38.531Z,8.33
2018-12-03T00:38:07.798Z,11.03
2018-12-03T00:40:36.722Z,11.17
2018-12-03T00:43:05.987Z,10.57
2018-12-03T00:45:34.918Z,11.23
2018-12-03T00:48:03.907Z,9.80
2018-12-03T00:50:32.772Z,10.67
2018-12-03T00:53:01.834Z,11.90
2018-12-03T00:55:30.681Z,11.97
2018-12-03T00:57:59.569Z,13.40
2018-12-03T01:00:29.025Z,12.90
2018-12-03T01:02:58.008Z,13.97
2018-12-03T01:05:26.913Z,14.97
2018-12-03T01:07:56.224Z,14.73
2018-12-03T01:10:25.055Z,14.28
2018-12-03T01:12:53.850Z,15.10
2018-12-03T01:15:22.716Z,15.57
2018-12-03T01:17:51.480Z,15.53
2018-12-03T01:20:20.269Z,15.40
2018-12-03T01:22:49.286Z,16.23
2018-12-03T01:25:18.028Z,15.77
2018-12-03T01:27:46.814Z,16.25
2018-12-03T01:30:15.783Z,15.97
2018-12-03T01:32:44.649Z,15.27
2018-12-03T01:35:13.514Z,16.23
2018-12-03T01:37:43.123Z,15.85
2018-12-03T01:45:42.130Z,14.57
2018-12-03T01:48:12.308Z,13.87
2018-12-03T01:50:42.307Z,15.47
2018-12-03T01:53:12.539Z,14.43
2018-12-03T01:58:52.123Z,15.60
2018-12-03T02:01:22.140Z,15.70
2018-12-03T02:03:52.174Z,14.73
2018-12-03T02:06:41.067Z,15.20
2018-12-03T02:09:11.209Z,15.07
2018-12-03T02:11:41.202Z,15.23
2018-12-03T02:19:55.863Z,15.03
2018-12-03T02:22:25.886Z,15.30
2018-12-03T02:24:55.880Z,13.80
2018-12-03T02:27:26.077Z,14.70
2018-12-03T02:29:56.135Z,13.80
2018-12-03T02:32:26.157Z,13.63
2018-12-03T02:34:56.337Z,13.80
2018-12-03T02:37:26.405Z,14.20
2018-12-03T02:39:56.420Z,14.10
2018-12-03T02:42:45.298Z,13.15
2018-12-03T02:45:15.837Z,12.70
2018-12-03T02:47:45.843Z,12.67
2018-12-03T02:50:16.427Z,12.97
2018-12-03T02:52:46.444Z,13.67
2018-12-03T02:58:18.940Z,13.40
2018-12-03T03:00:48.957Z,13.43
2018-12-03T03:03:18.931Z,13.65
2018-12-03T03:05:49.707Z,13.72
2018-12-03T03:08:19.725Z,14.37
2018-12-03T03:10:49.745Z,13.55
2018-12-03T03:13:19.865Z,14.07
2018-12-03T03:15:49.901Z,13.37
2018-12-03T03:18:19.909Z,13.83
2018-12-03T03:20:50.120Z,15.58
2018-12-03T03:23:20.140Z,15.38
2018-12-03T03:25:50.161Z,15.20
2018-12-03T03:28:20.309Z,18.30
2018-12-03T03:30:50.430Z,15.55
2018-12-03T03:36:34.428Z,15.17
2018-12-03T03:39:15.986Z,16.33
2018-12-03T03:41:46.215Z,16.10
2018-12-03T03:44:16.227Z,16.43
2018-12-03T03:46:46.313Z,16.17
2018-12-03T03:49:16.365Z,15.87
2018-12-03T03:51:46.381Z,14.23
2018-12-03T03:54:16.402Z,16.47
2018-12-03T03:56:46.443Z,14.57
2018-12-03T03:59:16.496Z,14.00
2018-12-03T04:01:46.532Z,13.77
2018-12-03T04:07:19.067Z,15.43
2018-12-03T04:09:49.029Z,14.30
2018-12-03T04:12:19.096Z,15.33
2018-12-03T04:14:49.228Z,15.67
2018-12-03T04:17:19.343Z,16.20
2018-12-03T04:19:49.391Z,16.03
2018-12-03T04:22:19.554Z,16.00
2018-12-03T04:24:49.640Z,16.23
2018-12-03T04:27:19.696Z,14.18
2018-12-03T04:29:49.917Z,15.20
2018-12-03T04:32:20.004Z,15.03
2018-12-03T04:34:50.006Z,14.28
2018-12-03T04:37:20.783Z,14.30
2018-12-03T04:39:51.997Z,14.07
2018-12-03T04:42:22.082Z,14.10
2018-12-03T04:44:52.292Z,13.77
2018-12-03T04:47:22.316Z,13.80
2018-12-03T04:49:52.326Z,13.47
2018-12-03T04:52:22.449Z,12.70
2018-12-03T04:54:52.592Z,11.97
2018-12-03T04:57:22.654Z,12.50
2018-12-03T04:59:52.948Z,11.50
2018-12-03T05:02:22.997Z,11.85
2018-12-03T05:04:53.064Z,12.23
2018-12-03T05:07:23.204Z,12.70
2018-12-03T05:09:53.281Z,13.60
2018-12-03T05:12:23.298Z,12.68
2018-12-03T05:14:53.464Z,12.97
2018-12-03T05:17:23.559Z,13.62
2018-12-03T05:19:53.683Z,13.30
2018-12-03T05:22:23.877Z,14.47
2018-12-03T05:24:53.910Z,14.90
2018-12-03T05:27:23.943Z,14.23
2018-12-03T05:29:54.038Z,13.40
2018-12-03T05:32:24.042Z,14.70
2018-12-03T05:34:54.161Z,14.20
2018-12-03T05:37:24.371Z,14.80
2018-12-03T05:39:54.450Z,14.37
2018-12-03T05:42:24.576Z,14.20
2018-12-03T05:44:54.755Z,13.20
2018-12-03T05:47:24.833Z,13.50
2018-12-03T05:49:54.887Z,14.00
2018-12-03T05:52:25.010Z,12.67
2018-12-03T05:54:55.064Z,13.75
2018-12-03T05:57:25.049Z,13.45
2018-12-03T05:59:55.250Z,14.03
2018-12-03T06:02:25.281Z,13.83
2018-12-03T06:04:55.302Z,12.05
2018-12-03T06:07:25.583Z,13.70
2018-12-03T06:09:55.647Z,11.95
2018-12-03T06:12:25.653Z,12.77
2018-12-03T06:14:55.811Z,14.05
2018-12-03T06:17:25.880Z,11.73
2018-12-03T06:19:55.861Z,12.90
2018-12-03T06:22:25.998Z,11.93
2018-12-03T06:24:56.054Z,13.48
2018-12-03T06:27:44.939Z,13.13
2018-12-03T06:30:16.919Z,13.37
2018-12-03T06:32:46.933Z,13.13
2018-12-03T06:35:17.994Z,13.27
2018-12-03T06:37:48.420Z,13.60
2018-12-03T06:40:37.380Z,12.70
2018-12-03T06:43:07.977Z,12.93
2018-12-03T06:45:56.994Z,12.30
2018-12-03T06:48:27.126Z,11.75
2018-12-03T06:50:57.147Z,11.30
2018-12-03T06:53:27.264Z,13.10
2018-12-03T06:55:57.317Z,12.60
2018-12-03T06:58:27.385Z,12.33
2018-12-03T07:00:57.581Z,11.83
2018-12-03T07:03:27.584Z,11.70
2018-12-03T07:05:57.631Z,10.72
2018-12-03T07:11:09.675Z,10.30
2018-12-03T07:13:39.895Z,9.03
2018-12-03T07:16:09.908Z,9.03
2018-12-03T07:18:39.963Z,8.13
2018-12-03T07:21:10.122Z,8.87
2018-12-03T07:23:40.180Z,8.43
2018-12-03T07:26:10.245Z,9.13
2018-12-03T07:28:40.370Z,7.97
2018-12-03T07:31:10.418Z,8.97
2018-12-03T07:33:40.424Z,8.20
2018-12-03T07:36:10.487Z,8.50
2018-12-03T07:38:40.558Z,8.03
2018-12-03T07:41:29.549Z,7.57
2018-12-03T07:46:48.910Z,6.50
2018-12-03T07:49:19.000Z,6.67
2018-12-03T07:51:49.059Z,5.87
2018-12-03T07:54:19.320Z,5.50
2018-12-03T07:56:49.390Z,6.00
2018-12-03T07:59:19.433Z,5.62
2018-12-03T08:01:49.732Z,5.20
2018-12-03T08:04:38.601Z,5.17
2018-12-03T08:07:08.781Z,4.70
2018-12-03T08:09:57.641Z,4.60
2018-12-03T08:12:27.961Z,4.40
2018-12-03T08:14:58.011Z,3.53
2018-12-03T08:17:28.038Z,4.20
2018-12-03T08:19:58.212Z,4.30
2018-12-03T08:22:28.293Z,4.60
2018-12-03T08:24:58.284Z,4.30
2018-12-03T08:27:28.382Z,4.60
2018-12-03T08:29:58.420Z,5.17
2018-12-03T08:32:28.440Z,5.22
2018-12-03T08:34:58.600Z,4.70
2018-12-03T08:40:29.427Z,4.63
2018-12-03T08:42:59.402Z,4.70
2018-12-03T08:45:29.524Z,5.60
2018-12-03T08:51:00.401Z,5.50
2018-12-03T08:53:30.774Z,7.33
2018-12-03T08:56:00.804Z,6.80
2018-12-03T08:58:30.823Z,6.22
2018-12-03T09:03:42.556Z,5.47
2018-12-03T09:06:21.114Z,4.73
2018-12-03T09:08:52.313Z,5.65
2018-12-03T09:11:23.599Z,5.20
2018-12-03T09:13:54.586Z,5.35
2018-12-03T09:16:24.871Z,5.72
2018-12-03T09:18:54.921Z,5.80
2018-12-03T09:21:25.612Z,5.90
2018-12-03T09:26:50.678Z,5.70
2018-12-03T09:29:20.933Z,5.72
2018-12-03T09:31:51.673Z,6.27
2018-12-03T09:34:22.092Z,22.70
2018-12-03T09:36:53.016Z,20.87
2018-12-03T09:39:24.150Z,7.62
2018-12-03T09:41:54.229Z,6.37
2018-12-03T09:44:24.310Z,5.97
2018-12-03T09:46:54.308Z,6.10
2018-12-03T09:49:24.311Z,6.47
2018-12-03T09:54:36.585Z,6.50
2018-12-03T09:57:06.769Z,5.50
2018-12-03T09:59:36.808Z,5.53
2018-12-03T10:02:07.495Z,5.10
2018-12-03T10:04:39.970Z,5.10
2018-12-03T10:07:30.311Z,12.07
2018-12-03T10:10:11.785Z,5.55
2018-12-03T10:12:42.211Z,5.33
2018-12-03T10:18:15.388Z,4.15
2018-12-03T10:20:50.020Z,4.70
2018-12-03T10:23:20.212Z,4.92
2018-12-03T10:25:52.440Z,4.70
2018-12-03T10:28:22.520Z,4.70
2018-12-03T10:30:53.670Z,5.00
2018-12-03T10:36:26.541Z,5.30
2018-12-03T10:38:56.622Z,5.47
2018-12-03T10:41:45.667Z,5.00
2018-12-03T10:47:17.158Z,6.23
2018-12-03T10:49:47.170Z,4.60
2018-12-03T10:53:00.440Z,4.80
2018-12-03T10:55:30.595Z,5.78
2018-12-03T10:58:00.644Z,5.00
2018-12-03T11:00:49.601Z,7.43
2018-12-03T11:03:38.197Z,10.40
2018-12-03T11:06:20.656Z,5.10
2018-12-03T11:08:50.788Z,4.28
2018-12-03T11:11:39.851Z,5.07
2018-12-03T11:14:20.723Z,5.90
2018-12-03T11:17:02.211Z,5.20
2018-12-03T11:25:30.191Z,4.33
2018-12-03T11:28:02.003Z,4.20
2018-12-03T11:33:52.588Z,14.13
2018-12-03T11:37:00.190Z,6.70
2018-12-03T11:40:09.051Z,6.03
2018-12-03T11:45:40.994Z,4.87
2018-12-03T11:48:11.045Z,4.80
2018-12-03T11:50:41.060Z,5.53
2018-12-03T11:53:11.207Z,5.13
2018-12-03T11:55:41.265Z,4.60
2018-12-03T11:58:50.435Z,4.60
2018-12-03T12:01:20.531Z,5.07
2018-12-03T12:03:50.614Z,5.50
2018-12-03T12:11:43.633Z,6.30
2018-12-03T12:14:32.558Z,5.37
2018-12-03T12:17:02.721Z,4.97
2018-12-03T12:19:32.729Z,5.53
2018-12-03T12:24:45.403Z,5.22
2018-12-03T12:27:54.592Z,4.80
2018-12-03T12:30:24.902Z,4.90
2018-12-03T12:32:54.879Z,5.27
2018-12-03T12:38:07.185Z,6.00
2018-12-03T12:41:16.361Z,6.20
2018-12-03T12:43:46.468Z,5.53
2018-12-03T12:50:01.903Z,5.57
2018-12-03T12:52:31.923Z,5.50
2018-12-03T12:55:02.111Z,6.53
2018-12-03T12:57:32.261Z,5.63
2018-12-03T13:00:02.291Z,5.20
2018-12-03T13:02:32.374Z,5.10
2018-12-03T13:05:02.456Z,5.30
2018-12-03T13:07:32.484Z,5.17
2018-12-03T13:10:02.521Z,5.30
2018-12-03T13:12:32.687Z,5.33
2018-12-03T13:15:02.702Z,5.50
2018-12-03T13:17:33.871Z,5.87
2018-12-03T13:22:49.603Z,5.70
2018-12-03T13:28:03.054Z,5.03
2018-12-03T13:33:36.089Z,6.00
2018-12-03T13:41:57.929Z,6.13
2018-12-03T13:44:28.235Z,5.70
2018-12-03T13:47:17.145Z,5.50
2018-12-03T13:52:49.998Z,6.53
2018-12-03T13:55:38.840Z,6.70
2018-12-03T13:58:09.000Z,5.47
2018-12-03T14:00:39.033Z,6.15
2018-12-03T14:03:32.181Z,5.35
2018-12-03T14:06:39.775Z,6.13
2018-12-03T14:09:47.413Z,5.47
2018-12-03T14:12:55.074Z,5.47
2018-12-03T14:16:02.802Z,5.10
2018-12-03T14:18:36.387Z,5.30
2018-12-03T14:24:20.625Z,5.50
2018-12-03T14:26:50.881Z,5.03
2018-12-03T14:29:20.871Z,6.00
2018-12-03T14:31:50.837Z,5.33
2018-12-03T14:34:39.673Z,5.80
2018-12-03T14:37:09.730Z,5.60
2018-12-03T14:39:39.708Z,6.00
2018-12-03T14:42:09.933Z,6.70
2018-12-03T14:44:39.997Z,5.70
2018-12-03T14:47:10.061Z,6.43
2018-12-03T14:49:40.174Z,6.47
2018-12-03T14:52:10.689Z,6.70
2018-12-03T14:54:42.219Z,6.00
2018-12-03T14:57:12.376Z,6.30
2018-12-03T14:59:42.482Z,6.22
2018-12-03T15:02:12.501Z,6.28
2018-12-03T15:04:42.681Z,5.33
2018-12-03T15:07:14.140Z,4.92
2018-12-03T15:09:44.156Z,5.70
2018-12-03T15:12:14.352Z,5.43
2018-12-03T15:14:44.674Z,5.05
2018-12-03T15:17:14.777Z,5.20
2018-12-03T15:22:26.907Z,5.63
2018-12-03T15:24:57.117Z,5.40
2018-12-03T15:27:27.281Z,5.80
2018-12-03T15:29:57.359Z,5.20
2018-12-03T15:35:29.955Z,6.57
2018-12-03T15:38:00.414Z,6.67
2018-12-03T15:40:30.994Z,7.03
2018-12-03T15:43:40.638Z,7.03
2018-12-03T15:46:21.691Z,6.90
2018-12-03T15:48:52.075Z,7.42
2018-12-03T15:51:22.122Z,7.50
2018-12-03T15:53:52.156Z,6.85
2018-12-03T15:59:27.331Z,7.07
2018-12-03T16:01:57.305Z,7.23
2018-12-03T16:04:46.127Z,6.63
2018-12-03T16:07:16.410Z,6.80
2018-12-03T16:09:48.428Z,6.22
2018-12-03T16:12:18.446Z,6.43
2018-12-03T16:14:48.667Z,6.95
2018-12-03T16:20:11.342Z,6.97
2018-12-03T16:22:41.335Z,7.43
2018-12-03T16:25:11.362Z,6.87
2018-12-03T16:27:41.545Z,7.00
2018-12-03T16:30:17.341Z,7.70
2018-12-03T16:32:47.315Z,7.58
2018-12-03T16:35:56.519Z,7.60
2018-12-03T16:38:56.794Z,7.73
2018-12-03T16:44:48.203Z,7.60
2018-12-03T16:47:29.262Z,7.23
2018-12-03T16:53:01.716Z,7.70
2018-12-03T16:55:31.794Z,7.23
2018-12-03T16:58:01.854Z,7.77
2018-12-03T17:00:31.989Z,7.97
2018-12-03T17:03:02.054Z,7.57
2018-12-03T17:05:32.054Z,7.93
2018-12-03T17:08:41.351Z,7.73
2018-12-03T17:11:41.869Z,8.10
2018-12-03T17:14:11.902Z,8.83
2018-12-03T17:16:41.972Z,8.07
2018-12-03T17:19:11.962Z,8.10
2018-12-03T17:25:02.116Z,8.33
2018-12-03T17:30:14.243Z,7.90
2018-12-03T17:32:44.545Z,7.47
2018-12-03T17:38:24.005Z,7.50
2018-12-03T17:40:54.022Z,7.08
2018-12-03T17:43:24.055Z,7.50
2018-12-03T17:45:54.240Z,8.45
2018-12-03T17:48:24.247Z,7.87
2018-12-03T17:50:54.236Z,7.87
2018-12-03T17:53:24.281Z,7.72
2018-12-03T17:55:54.784Z,7.05
2018-12-03T17:58:24.756Z,7.00
2018-12-03T18:00:54.924Z,7.45
2018-12-03T18:03:24.956Z,7.37
2018-12-03T18:05:54.951Z,7.53
2018-12-03T18:08:25.096Z,7.63
2018-12-03T18:10:55.111Z,8.13
2018-12-03T18:19:10.162Z,7.53
2018-12-03T18:21:59.145Z,8.07
2018-12-03T18:27:48.975Z,7.37
2018-12-03T18:30:19.017Z,9.87
2018-12-03T18:32:49.038Z,7.63
2018-12-03T18:35:19.200Z,6.97
2018-12-03T18:37:49.284Z,7.50
2018-12-03T18:40:19.293Z,7.80
2018-12-03T18:42:49.457Z,8.87
2018-12-03T18:45:19.509Z,8.20
2018-12-03T18:47:49.769Z,8.17
2018-12-03T18:50:39.408Z,8.20
2018-12-03T18:53:28.875Z,7.28
2018-12-03T18:55:58.964Z,7.33
2018-12-03T18:58:53.223Z,7.10
2018-12-03T19:01:23.385Z,6.50
2018-12-03T19:03:54.013Z,7.08
2018-12-03T19:06:24.034Z,7.10
2018-12-03T19:08:54.248Z,7.92
2018-12-03T19:11:24.733Z,7.58
2018-12-03T19:13:55.534Z,8.80
2018-12-03T19:16:25.753Z,9.20
2018-12-03T19:18:55.853Z,8.50
2018-12-03T19:21:25.867Z,9.03
2018-12-03T19:26:49.384Z,8.63
2018-12-03T19:29:19.538Z,7.80
2018-12-03T19:31:49.543Z,7.93
2018-12-03T19:34:19.582Z,7.73
2018-12-03T19:36:49.694Z,7.63
2018-12-03T19:39:19.702Z,6.90
2018-12-03T19:41:49.732Z,7.33
2018-12-03T19:44:38.708Z,8.17
2018-12-03T19:47:08.869Z,7.47
2018-12-03T19:49:38.889Z,7.63
2018-12-03T19:55:14.046Z,10.27
2018-12-03T20:00:47.474Z,8.53
2018-12-03T20:03:17.577Z,7.97
2018-12-03T20:05:47.643Z,8.83
2018-12-03T20:08:17.723Z,8.50
2018-12-03T20:10:47.756Z,9.73
2018-12-03T20:16:20.363Z,9.07
2018-12-03T20:18:50.520Z,9.80
2018-12-03T20:21:25.853Z,10.43
2018-12-03T20:27:28.376Z,11.03
2018-12-03T20:30:36.116Z,10.37
2018-12-03T20:33:29.876Z,10.33
2018-12-03T20:36:37.535Z,10.25
2018-12-03T20:39:45.140Z,9.80
2018-12-03T20:42:15.327Z,11.07
2018-12-03T20:44:49.762Z,9.90
2018-12-03T20:47:40.781Z,10.17
2018-12-03T20:50:48.333Z,9.50
2018-12-03T20:53:59.419Z,9.63
2018-12-03T20:56:29.453Z,10.32
2018-12-03T20:58:59.449Z,10.20
2018-12-03T21:01:29.660Z,10.43
2018-12-03T21:03:59.657Z,10.28
2018-12-03T21:06:29.671Z,9.63
2018-12-03T21:08:59.888Z,9.60
2018-12-03T21:11:29.906Z,10.63
2018-12-03T21:13:59.938Z,10.75
2018-12-03T21:19:42.182Z,11.10
2018-12-03T21:22:12.338Z,11.53
2018-12-03T21:24:42.400Z,10.10
2018-12-03T21:27:12.399Z,10.83
2018-12-03T21:29:42.564Z,9.53
2018-12-03T21:32:12.602Z,9.83
2018-12-03T21:34:42.591Z,9.53
2018-12-03T21:37:12.696Z,9.97
2018-12-03T21:39:47.918Z,8.67
2018-12-03T21:42:14.648Z,7.50
2018-12-03T21:44:44.870Z,5.50
2018-12-03T21:47:14.961Z,6.17
2018-12-03T21:49:44.989Z,5.40
2018-12-03T21:52:54.856Z,3.90
2018-12-03T21:55:25.821Z,3.98
2018-12-03T21:57:57.485Z,4.90
2018-12-03T22:00:29.591Z,3.42
2018-12-03T22:02:59.651Z,3.77
2018-12-03T22:05:30.838Z,3.72
2018-12-03T22:08:01.697Z,3.67
2018-12-03T22:10:31.898Z,2.87
2018-12-03T22:13:02.014Z,3.30
2018-12-03T22:15:32.572Z,2.50
2018-12-03T22:18:02.635Z,3.83
2018-12-03T22:20:36.303Z,2.80
2018-12-03T22:23:06.358Z,2.70
2018-12-03T22:25:36.325Z,2.30
2018-12-03T22:28:06.334Z,2.13
2018-12-03T22:30:36.412Z,2.30
2018-12-03T22:33:06.470Z,2.13
2018-12-03T22:35:36.570Z,3.00
2018-12-03T22:38:06.628Z,1.90
2018-12-03T22:40:36.667Z,2.03
2018-12-03T22:43:06.782Z,2.43
2018-12-03T22:45:36.904Z,2.10
2018-12-03T22:48:06.928Z,2.00
2018-12-03T22:50:36.978Z,2.00
2018-12-03T22:53:07.019Z,2.40
2018-12-03T22:55:37.104Z,2.33
2018-12-03T22:58:26.084Z,2.00
2018-12-03T23:01:35.171Z,2.23
2018-12-03T23:06:47.844Z,1.95
2018-12-03T23:09:18.019Z,2.10
2018-12-03T23:14:37.044Z,2.00
2018-12-03T23:17:07.067Z,2.00
2018-12-03T23:19:37.093Z,2.60
2018-12-03T23:22:07.232Z,1.93
2018-12-03T23:24:37.200Z,2.37
2018-12-03T23:27:07.192Z,2.13
2018-12-03T23:33:10.461Z,1.83
2018-12-03T23:35:50.841Z,1.87
2018-12-03T23:38:20.910Z,1.70
2018-12-03T23:40:50.928Z,2.03
2018-12-03T23:43:20.975Z,2.23
2018-12-03T23:45:51.172Z,2.53
2018-12-03T23:48:21.290Z,2.23
2018-12-03T23:50:51.326Z,2.00
2018-12-03T23:53:40.263Z,2.40
2018-12-03T23:56:10.440Z,2.10
